Time;durP1;ratioP1;P1;durP2;ratioP2;P2;SDS_P1;SDS_P2;PMS_P1;PMS_P2;Temp;Humidity;BMP_temperature;BMP_pressure;BME280_temperature;BME280_humidity;BME280_pressure;Samples;Min_cycle;Max_cycle;Signal;HPM_P1;HPM_P2
2024/01/26 00:01:59;;;;;;;1.00;0.70;;;9.50;99.90;;;;;;5070238;28;20430;-73
2024/01/26 00:04:25;;;;;;;0.80;0.60;;;9.50;99.90;;;;;;5069829;28;20309;-74
2024/01/26 00:06:51;;;;;;;0.90;0.50;;;9.50;99.90;;;;;;5069861;28;20513;-75
2024/01/26 00:09:16;;;;;;;0.80;0.70;;;9.50;99.90;;;;;;5051816;28;20744;-75
2024/01/26 00:11:43;;;;;;;0.80;0.80;;;9.50;99.90;;;;;;5069671;28;20194;-74
2024/01/26 00:14:09;;;;;;;1.00;0.90;;;9.40;99.90;;;;;;5069738;28;20183;-74
2024/01/26 00:16:37;;;;;;;1.23;0.80;;;9.50;99.90;;;;;;5069903;28;20456;-75
2024/01/26 00:19:03;;;;;;;1.20;1.10;;;9.50;99.90;;;;;;5069952;28;20458;-74
2024/01/26 00:21:29;;;;;;;4.30;1.20;;;9.60;99.90;;;;;;5052450;28;20440;-75
2024/01/26 00:23:55;;;;;;;1.27;0.90;;;9.60;99.90;;;;;;5052530;28;20422;-75
2024/01/26 00:26:20;;;;;;;1.57;0.70;;;9.60;99.90;;;;;;5070116;28;20833;-75
2024/01/26 00:28:46;;;;;;;1.00;0.90;;;9.50;99.90;;;;;;5069773;28;20201;-75
2024/01/26 00:31:16;;;;;;;0.83;0.77;;;9.60;99.90;;;;;;5069611;28;20195;-75
2024/01/26 00:33:42;;;;;;;1.83;1.20;;;9.60;99.90;;;;;;5069709;28;20183;-75
2024/01/26 00:36:08;;;;;;;1.27;1.17;;;9.50;99.90;;;;;;5069593;28;20420;-74
2024/01/26 00:38:33;;;;;;;1.07;0.80;;;9.50;99.90;;;;;;5069207;28;20465;-74
2024/01/26 00:40:59;;;;;;;1.23;0.97;;;9.70;99.90;;;;;;5051030;28;20305;-75
2024/01/26 00:43:25;;;;;;;1.50;1.30;;;9.60;99.90;;;;;;5051126;28;20217;-74
2024/01/26 00:45:50;;;;;;;1.27;1.10;;;9.60;99.90;;;;;;5069379;28;20183;-75
2024/01/26 00:48:16;;;;;;;1.87;1.23;;;9.50;99.90;;;;;;5069567;28;20228;-74
2024/01/26 00:50:41;;;;;;;1.00;0.90;;;9.60;99.90;;;;;;5069846;28;20684;-75
2024/01/26 00:53:07;;;;;;;3.10;0.97;;;9.60;99.90;;;;;;5051669;28;20209;-74
2024/01/26 00:55:33;;;;;;;1.73;1.10;;;9.60;99.90;;;;;;5069971;28;20588;-73
2024/01/26 00:57:59;;;;;;;0.87;0.73;;;9.50;99.90;;;;;;5069184;28;20676;-74
2024/01/26 01:00:25;;;;;;;1.07;0.80;;;9.50;99.90;;;;;;5051180;28;20264;-74
2024/01/26 01:02:52;;;;;;;2.03;0.90;;;9.50;99.90;;;;;;5069322;28;20425;-73
2024/01/26 01:05:18;;;;;;;3.43;1.20;;;9.50;99.90;;;;;;5069238;28;20414;-74
2024/01/26 01:07:43;;;;;;;1.17;1.00;;;9.60;99.90;;;;;;5069127;28;20479;-73
2024/01/26 01:10:13;;;;;;;3.57;1.43;;;9.50;99.90;;;;;;5069274;28;20241;-73
2024/01/26 01:12:43;;;;;;;0.90;0.80;;;9.50;99.90;;;;;;5069048;28;20179;-73
2024/01/26 01:15:13;;;;;;;1.00;0.70;;;9.40;99.90;;;;;;5051228;28;20434;-73
2024/01/26 01:17:43;;;;;;;1.00;0.90;;;9.30;99.90;;;;;;5050810;28;20433;-73
2024/01/26 01:20:10;;;;;;;0.80;0.70;;;9.30;99.90;;;;;;5069064;28;20560;-73
2024/01/26 01:22:37;;;;;;;1.00;0.90;;;9.30;99.90;;;;;;5069110;28;20457;-73
2024/01/26 01:25:07;;;;;;;1.27;1.13;;;9.30;99.90;;;;;;5051224;28;20418;-73
2024/01/26 01:27:35;;;;;;;1.47;1.00;;;9.30;99.90;;;;;;5068956;28;20866;-73
2024/01/26 01:30:02;;;;;;;1.00;0.80;;;9.40;99.90;;;;;;5051271;28;20429;-73
2024/01/26 01:32:27;;;;;;;1.27;0.90;;;9.30;99.90;;;;;;5069055;28;20463;-74
2024/01/26 01:34:53;;;;;;;1.40;1.00;;;9.30;99.90;;;;;;5068766;28;20457;-73
2024/01/26 01:37:19;;;;;;;1.53;1.13;;;9.40;99.90;;;;;;5050245;28;20198;-74
2024/01/26 01:39:44;;;;;;;0.97;0.87;;;9.40;99.90;;;;;;5068247;28;20215;-73
2024/01/26 01:42:18;;;;;;;4.90;0.83;;;9.40;99.90;;;;;;5068390;28;20188;-74
2024/01/26 01:44:45;;;;;;;1.20;1.03;;;9.40;99.90;;;;;;5068578;28;20261;-73
2024/01/26 01:47:12;;;;;;;1.10;1.00;;;9.40;99.90;;;;;;5052849;28;20468;-72
2024/01/26 01:49:40;;;;;;;7.20;0.90;;;9.30;99.90;;;;;;5050362;28;21135;-73
2024/01/26 01:52:08;;;;;;;1.93;0.90;;;9.30;99.90;;;;;;5050330;28;20518;-74
2024/01/26 01:54:34;;;;;;;1.90;0.80;;;9.30;99.90;;;;;;5072151;28;20436;-74
2024/01/26 01:57:03;;;;;;;3.53;1.10;;;9.30;99.90;;;;;;5072568;28;20413;-74
2024/01/26 01:59:29;;;;;;;1.10;0.90;;;9.30;99.90;;;;;;5072045;28;20248;-75
2024/01/26 02:01:55;;;;;;;0.90;0.70;;;9.30;99.90;;;;;;5072212;28;20413;-74
2024/01/26 02:04:21;;;;;;;1.20;0.70;;;9.40;99.90;;;;;;5072098;28;20413;-75
2024/01/26 02:06:56;;;;;;;4.27;1.10;;;9.40;99.90;;;;;;5072109;28;20603;-73
2024/01/26 02:09:22;;;;;;;1.20;0.97;;;9.30;99.90;;;;;;5071986;28;20260;-74
2024/01/26 02:11:48;;;;;;;0.80;0.70;;;9.30;99.90;;;;;;5072592;28;20421;-75
2024/01/26 02:14:14;;;;;;;1.70;0.90;;;9.30;99.90;;;;;;5072104;28;20183;-74
2024/01/26 02:16:39;;;;;;;1.97;0.80;;;9.30;99.90;;;;;;5072190;28;20425;-75
2024/01/26 02:19:05;;;;;;;1.17;0.70;;;9.30;99.90;;;;;;5071890;28;20217;-76
2024/01/26 02:21:30;;;;;;;1.00;0.83;;;9.30;99.90;;;;;;5053979;28;20179;-74
2024/01/26 02:23:56;;;;;;;1.03;0.80;;;9.20;99.90;;;;;;5072059;28;20188;-74
2024/01/26 02:26:22;;;;;;;1.23;0.83;;;9.30;99.90;;;;;;5071961;28;20195;-75
2024/01/26 02:28:47;;;;;;;1.23;0.70;;;9.20;99.90;;;;;;5053774;28;20210;-73
2024/01/26 02:31:13;;;;;;;0.77;0.60;;;9.30;99.90;;;;;;5073344;28;20187;-73
2024/01/26 02:33:38;;;;;;;1.30;0.80;;;9.20;99.90;;;;;;5072607;28;20192;-73
2024/01/26 02:36:04;;;;;;;2.20;0.80;;;9.20;99.90;;;;;;5072224;28;20183;-75
2024/01/26 02:38:30;;;;;;;0.70;0.50;;;9.10;99.90;;;;;;5053575;28;20223;-71
2024/01/26 02:40:55;;;;;;;1.10;0.60;;;9.00;99.90;;;;;;5071887;28;20473;-72
2024/01/26 02:43:21;;;;;;;1.00;0.50;;;9.10;99.90;;;;;;5071929;28;20834;-73
2024/01/26 02:45:47;;;;;;;1.10;1.00;;;9.00;99.90;;;;;;5053872;28;20198;-73
2024/01/26 02:48:13;;;;;;;0.80;0.60;;;9.00;99.90;;;;;;5037011;28;20207;-73
2024/01/26 02:50:39;;;;;;;1.57;0.70;;;9.10;99.90;;;;;;5072073;28;20198;-74
2024/01/26 02:53:05;;;;;;;0.90;0.60;;;9.10;99.90;;;;;;5071621;28;20884;-75
2024/01/26 02:55:31;;;;;;;2.60;0.60;;;9.30;99.90;;;;;;5053399;28;21180;-76
2024/01/26 02:57:56;;;;;;;1.33;0.80;;;9.10;99.90;;;;;;5071350;28;20445;-74
2024/01/26 03:00:22;;;;;;;2.70;0.60;;;9.10;99.90;;;;;;5071369;28;20210;-72
2024/01/26 03:02:48;;;;;;;0.70;0.60;;;9.10;99.90;;;;;;5071608;28;20182;-74
2024/01/26 03:05:13;;;;;;;0.80;0.60;;;9.10;99.90;;;;;;5052806;28;20187;-73
2024/01/26 03:07:39;;;;;;;0.80;0.53;;;9.10;99.90;;;;;;5036638;28;20780;-74
2024/01/26 03:10:06;;;;;;;2.80;1.30;;;9.10;99.90;;;;;;5071303;28;20194;-74
2024/01/26 03:12:33;;;;;;;1.13;0.57;;;9.10;99.90;;;;;;5071303;28;20225;-75
2024/01/26 03:15:00;;;;;;;3.00;0.60;;;9.10;99.90;;;;;;5071190;28;20463;-75
2024/01/26 03:17:25;;;;;;;1.47;0.70;;;9.10;99.90;;;;;;5070901;28;20433;-74
2024/01/26 03:19:51;;;;;;;1.10;0.67;;;9.10;99.90;;;;;;5070712;28;20473;-75
2024/01/26 03:22:17;;;;;;;3.37;0.50;;;9.20;99.90;;;;;;5035933;28;20187;-74
2024/01/26 03:24:44;;;;;;;2.83;0.70;;;9.20;99.90;;;;;;5052628;28;20206;-74
2024/01/26 03:27:09;;;;;;;1.63;0.67;;;9.20;99.90;;;;;;5070928;28;20175;-73
2024/01/26 03:29:35;;;;;;;1.10;0.60;;;9.20;99.90;;;;;;5052497;28;20465;-74
2024/01/26 03:32:01;;;;;;;1.63;0.73;;;9.10;99.90;;;;;;5070721;28;20190;-75
2024/01/26 03:34:26;;;;;;;0.80;0.60;;;9.20;99.90;;;;;;5052817;28;20650;-75
2024/01/26 03:36:52;;;;;;;2.03;0.60;;;9.10;99.90;;;;;;5070435;28;20320;-75
2024/01/26 03:39:18;;;;;;;1.57;0.50;;;9.20;99.90;;;;;;5052626;28;20211;-75
2024/01/26 03:41:44;;;;;;;1.97;0.40;;;9.20;99.90;;;;;;5052408;28;20433;-76
2024/01/26 03:44:11;;;;;;;0.83;0.50;;;9.20;99.90;;;;;;5070762;28;20420;-73
2024/01/26 03:46:43;;;;;;;1.30;0.60;;;9.20;99.90;;;;;;5052363;28;20217;-74
2024/01/26 03:49:11;;;;;;;0.90;0.60;;;9.20;99.90;;;;;;5051954;28;20441;-76
2024/01/26 03:51:37;;;;;;;0.80;0.50;;;9.20;99.90;;;;;;5070248;28;20431;-77
2024/01/26 03:54:03;;;;;;;1.77;0.60;;;9.20;99.90;;;;;;5053227;28;20513;-77
2024/01/26 03:56:29;;;;;;;1.60;0.67;;;9.20;99.90;;;;;;5069659;28;20183;-76
2024/01/26 03:58:54;;;;;;;0.93;0.50;;;9.30;99.90;;;;;;5051394;28;20556;-75
2024/01/26 04:01:20;;;;;;;1.20;0.50;;;9.30;99.90;;;;;;5052461;28;20193;-75
2024/01/26 04:03:46;;;;;;;1.63;0.50;;;9.30;99.90;;;;;;5069845;28;20409;-76
2024/01/26 04:06:12;;;;;;;2.30;0.43;;;9.30;99.90;;;;;;5052154;28;20421;-75
2024/01/26 04:08:37;;;;;;;1.30;0.50;;;9.40;99.90;;;;;;5052274;28;20441;-76
2024/01/26 04:11:03;;;;;;;1.00;0.50;;;9.40;99.90;;;;;;5070635;28;20217;-76
2024/01/26 04:13:28;;;;;;;0.70;0.47;;;9.40;99.90;;;;;;5052754;28;20236;-77
2024/01/26 04:15:54;;;;;;;0.87;0.70;;;9.40;99.90;;;;;;5070351;28;20191;-77
2024/01/26 04:18:20;;;;;;;0.80;0.50;;;9.40;99.90;;;;;;5070409;28;21005;-77
2024/01/26 04:20:48;;;;;;;3.60;0.50;;;9.30;99.90;;;;;;5071927;28;20249;-76
2024/01/26 04:23:14;;;;;;;1.17;0.50;;;9.40;99.90;;;;;;5073815;28;20656;-77
2024/01/26 04:25:39;;;;;;;0.90;0.50;;;9.40;99.90;;;;;;5037479;28;20417;-75
2024/01/26 04:28:05;;;;;;;1.10;0.80;;;9.40;99.90;;;;;;5071164;28;20587;-75
2024/01/26 04:30:31;;;;;;;1.03;0.50;;;9.40;99.90;;;;;;5070975;28;20187;-75
2024/01/26 04:32:56;;;;;;;1.40;0.90;;;9.50;99.90;;;;;;5052607;28;20183;-75
2024/01/26 04:35:22;;;;;;;1.43;0.50;;;9.50;99.90;;;;;;5070215;28;20194;-74
2024/01/26 04:37:47;;;;;;;2.03;0.70;;;9.50;99.90;;;;;;5051926;28;20215;-76
2024/01/26 04:40:13;;;;;;;0.80;0.60;;;9.50;99.90;;;;;;5069779;28;20239;-77
2024/01/26 04:42:39;;;;;;;1.13;0.50;;;9.50;99.90;;;;;;5051677;28;20179;-77
2024/01/26 04:45:05;;;;;;;0.90;0.60;;;9.50;99.90;;;;;;5051888;28;20958;-77
2024/01/26 04:47:31;;;;;;;1.30;0.70;;;9.50;99.90;;;;;;5051697;28;20286;-78
2024/01/26 04:49:56;;;;;;;0.80;0.50;;;9.50;99.90;;;;;;5051612;28;20512;-76
2024/01/26 04:52:22;;;;;;;1.40;0.53;;;9.70;99.90;;;;;;5069454;28;20566;-76
2024/01/26 04:54:48;;;;;;;1.20;0.63;;;9.50;99.90;;;;;;5051267;28;20662;-77
2024/01/26 04:57:14;;;;;;;1.70;0.60;;;9.50;99.90;;;;;;5069562;28;20185;-77
2024/01/26 04:59:39;;;;;;;3.37;0.80;;;9.50;99.90;;;;;;5051168;28;20477;-77
2024/01/26 05:02:05;;;;;;;1.37;0.63;;;9.40;99.90;;;;;;5069449;28;20867;-77
2024/01/26 05:04:30;;;;;;;1.00;0.60;;;9.70;99.90;;;;;;5034587;28;20175;-77
2024/01/26 05:06:56;;;;;;;1.57;0.50;;;9.60;99.90;;;;;;5050639;28;20175;-75
2024/01/26 05:09:22;;;;;;;2.77;0.60;;;9.50;99.90;;;;;;5051141;28;20213;-74
2024/01/26 05:11:48;;;;;;;1.50;0.50;;;9.50;99.90;;;;;;5069403;28;20184;-75
2024/01/26 05:14:14;;;;;;;0.80;0.53;;;9.50;99.90;;;;;;5069218;28;20423;-74
2024/01/26 05:16:39;;;;;;;1.43;0.70;;;9.50;99.90;;;;;;5069062;28;20194;-74
2024/01/26 05:19:05;;;;;;;1.73;0.60;;;9.50;99.90;;;;;;5051246;28;20210;-74
2024/01/26 05:21:30;;;;;;;0.80;0.50;;;9.60;99.90;;;;;;5050478;28;20210;-75
2024/01/26 05:23:56;;;;;;;0.80;0.70;;;9.60;99.90;;;;;;5068332;28;20183;-73
2024/01/26 05:26:21;;;;;;;2.67;0.77;;;9.60;99.90;;;;;;5068590;28;21040;-73
2024/01/26 05:28:47;;;;;;;1.17;0.70;;;9.70;99.90;;;;;;5070997;28;20208;-73
2024/01/26 05:31:13;;;;;;;1.40;0.50;;;9.70;99.90;;;;;;5072915;28;20267;-74
2024/01/26 05:33:38;;;;;;;1.93;0.67;;;9.70;99.90;;;;;;5072777;28;20574;-74
2024/01/26 05:36:04;;;;;;;1.00;0.60;;;9.70;99.90;;;;;;5073171;28;20187;-74
2024/01/26 05:38:30;;;;;;;1.03;0.80;;;9.80;99.90;;;;;;5072545;28;20220;-74
2024/01/26 05:40:56;;;;;;;0.80;0.60;;;9.80;99.90;;;;;;5072346;28;20536;-74
2024/01/26 05:43:22;;;;;;;2.27;0.70;;;9.80;99.90;;;;;;5053880;28;20792;-74
2024/01/26 05:45:47;;;;;;;1.60;1.00;;;9.80;99.90;;;;;;5072128;28;20413;-74
2024/01/26 05:48:13;;;;;;;1.83;0.80;;;9.80;99.90;;;;;;5071886;28;20199;-74
2024/01/26 05:50:39;;;;;;;4.50;0.67;;;9.80;99.90;;;;;;5071553;28;20230;-74
2024/01/26 05:53:06;;;;;;;1.83;0.70;;;9.90;99.90;;;;;;5071384;28;20232;-74
2024/01/26 05:55:32;;;;;;;2.40;0.70;;;9.90;99.90;;;;;;5071274;28;20940;-74
2024/01/26 05:57:58;;;;;;;2.70;0.60;;;9.90;99.90;;;;;;5071072;28;20446;-74
2024/01/26 06:00:24;;;;;;;1.70;0.70;;;9.90;99.90;;;;;;5070796;28;20199;-74
2024/01/26 06:02:49;;;;;;;0.80;0.50;;;9.90;99.90;;;;;;5070917;28;20179;-75
2024/01/26 06:05:15;;;;;;;2.60;0.77;;;9.90;99.90;;;;;;5071083;28;20282;-74
2024/01/26 06:07:41;;;;;;;1.63;0.60;;;9.90;99.90;;;;;;5070984;28;20203;-75
2024/01/26 06:10:07;;;;;;;4.00;0.80;;;9.90;99.90;;;;;;5070903;28;21224;-74
2024/01/26 06:12:33;;;;;;;2.70;0.50;;;9.90;99.90;;;;;;5070706;28;20549;-74
2024/01/26 06:14:58;;;;;;;1.33;0.60;;;9.90;99.90;;;;;;5070825;28;20509;-74
2024/01/26 06:17:24;;;;;;;0.70;0.50;;;9.90;99.90;;;;;;5070636;28;20709;-74
2024/01/26 06:19:49;;;;;;;1.43;0.80;;;9.90;99.90;;;;;;5070668;28;20207;-72
2024/01/26 06:22:15;;;;;;;1.27;1.17;;;10.00;99.90;;;;;;5052486;28;20646;-74
2024/01/26 06:24:41;;;;;;;2.13;0.67;;;9.90;99.90;;;;;;5070789;28;20325;-74
2024/01/26 06:27:06;;;;;;;1.00;0.80;;;9.80;99.90;;;;;;5070265;28;20218;-74
2024/01/26 06:29:32;;;;;;;1.33;0.60;;;9.80;99.90;;;;;;5070937;28;20200;-72
2024/01/26 06:32:00;;;;;;;1.47;0.70;;;9.90;99.90;;;;;;5070946;28;20183;-73
2024/01/26 06:34:26;;;;;;;1.30;0.60;;;9.90;99.90;;;;;;5070693;28;20179;-73
2024/01/26 06:36:52;;;;;;;0.80;0.50;;;9.90;99.90;;;;;;5070426;28;20456;-73
2024/01/26 06:39:17;;;;;;;0.80;0.60;;;9.90;99.90;;;;;;5069404;28;20575;-73
2024/01/26 06:41:43;;;;;;;1.43;0.57;;;9.90;99.90;;;;;;5052077;28;20195;-72
2024/01/26 06:44:09;;;;;;;0.70;0.50;;;9.90;99.90;;;;;;5070264;28;20175;-73
2024/01/26 06:46:35;;;;;;;0.80;0.47;;;10.00;99.90;;;;;;5070290;28;20452;-74
2024/01/26 06:49:03;;;;;;;2.10;0.57;;;10.00;99.90;;;;;;5070299;28;20485;-74
2024/01/26 06:51:29;;;;;;;0.70;0.40;;;10.10;99.90;;;;;;5070098;28;20224;-74
2024/01/26 06:53:56;;;;;;;1.57;0.73;;;10.00;99.90;;;;;;5070247;28;20830;-74
2024/01/26 06:56:22;;;;;;;0.70;0.50;;;10.10;99.90;;;;;;5052111;28;20190;-74
2024/01/26 06:58:47;;;;;;;0.70;0.50;;;10.10;99.90;;;;;;5069809;28;20437;-74
2024/01/26 07:01:14;;;;;;;1.67;0.70;;;10.10;99.90;;;;;;5051823;28;20294;-75
2024/01/26 07:03:40;;;;;;;1.00;0.40;;;10.10;99.90;;;;;;5069511;28;20175;-74
2024/01/26 07:06:05;;;;;;;0.73;0.57;;;10.10;99.90;;;;;;5069563;28;20466;-74
2024/01/26 07:08:31;;;;;;;1.90;0.57;;;10.20;99.90;;;;;;5069159;28;20252;-75
2024/01/26 07:10:56;;;;;;;1.17;0.77;;;10.20;99.90;;;;;;5068891;28;20180;-74
2024/01/26 07:13:22;;;;;;;1.40;0.50;;;10.20;99.90;;;;;;5069500;28;20192;-75
2024/01/26 07:15:48;;;;;;;0.90;0.50;;;10.20;99.90;;;;;;5069522;28;20188;-74
2024/01/26 07:18:13;;;;;;;3.20;0.50;;;10.20;99.90;;;;;;5069646;28;20203;-73
2024/01/26 07:20:39;;;;;;;2.50;0.60;;;10.20;99.90;;;;;;5070375;28;20712;-73
2024/01/26 07:23:05;;;;;;;0.80;0.43;;;10.30;99.90;;;;;;5051260;28;20430;-73
2024/01/26 07:25:30;;;;;;;2.10;0.73;;;10.20;99.90;;;;;;5069010;28;20533;-73
2024/01/26 07:27:56;;;;;;;1.00;0.63;;;10.30;99.90;;;;;;5050669;28;20213;-73
2024/01/26 07:30:22;;;;;;;1.37;0.50;;;10.30;99.90;;;;;;5050716;28;20273;-73
2024/01/26 07:32:47;;;;;;;1.80;0.50;;;10.30;99.90;;;;;;5069163;28;20185;-73
2024/01/26 07:35:13;;;;;;;0.70;0.50;;;10.30;99.90;;;;;;5050895;28;20887;-73
2024/01/26 07:37:40;;;;;;;1.33;0.50;;;10.30;99.90;;;;;;5050352;28;20678;-74
2024/01/26 07:40:06;;;;;;;3.93;0.57;;;10.30;99.90;;;;;;5068678;28;20240;-75
2024/01/26 07:42:32;;;;;;;0.80;0.50;;;10.30;99.90;;;;;;5068776;28;20933;-75
2024/01/26 07:44:57;;;;;;;0.80;0.70;;;10.40;99.90;;;;;;5068549;28;20420;-75
2024/01/26 07:47:24;;;;;;;2.63;0.80;;;10.30;99.90;;;;;;5017149;28;20180;-75
2024/01/26 07:49:49;;;;;;;0.90;0.50;;;10.30;99.90;;;;;;5033861;28;20184;-73
2024/01/26 07:52:15;;;;;;;0.70;0.50;;;10.30;99.90;;;;;;5068634;28;20449;-75
2024/01/26 07:54:41;;;;;;;1.90;0.60;;;10.30;99.90;;;;;;5068657;28;20232;-75
2024/01/26 07:57:06;;;;;;;1.20;0.70;;;10.40;99.90;;;;;;5068623;28;20530;-74
2024/01/26 07:59:32;;;;;;;1.67;0.63;;;10.40;99.90;;;;;;5068475;28;20207;-74
2024/01/26 08:01:58;;;;;;;1.20;0.77;;;10.40;99.90;;;;;;5068520;28;20262;-74
2024/01/26 08:04:23;;;;;;;0.97;0.50;;;10.40;99.90;;;;;;5068610;28;20725;-74
2024/01/26 08:06:49;;;;;;;2.07;0.70;;;10.40;99.90;;;;;;5050602;28;20190;-74
2024/01/26 08:09:14;;;;;;;1.00;0.70;;;10.50;99.90;;;;;;5068435;28;20208;-74
2024/01/26 08:11:40;;;;;;;2.00;0.60;;;10.50;99.90;;;;;;5068277;28;20183;-74
2024/01/26 08:14:06;;;;;;;0.90;0.50;;;10.50;99.90;;;;;;5068514;28;20233;-74
2024/01/26 08:16:32;;;;;;;4.13;0.57;;;10.50;99.90;;;;;;5068370;28;20190;-74
2024/01/26 08:18:58;;;;;;;1.40;0.70;;;10.60;99.90;;;;;;5067964;28;20199;-74
2024/01/26 08:21:24;;;;;;;0.90;0.73;;;10.50;99.90;;;;;;5050282;28;20864;-74
2024/01/26 08:23:49;;;;;;;1.67;0.60;;;10.70;99.90;;;;;;5068460;28;20203;-74
2024/01/26 08:26:15;;;;;;;2.80;0.80;;;10.70;99.90;;;;;;5050790;28;20187;-74
2024/01/26 08:28:41;;;;;;;1.33;0.87;;;10.80;99.90;;;;;;5069067;28;20225;-74
2024/01/26 08:31:06;;;;;;;1.00;0.70;;;10.80;99.90;;;;;;5069370;28;20183;-73
2024/01/26 08:33:32;;;;;;;0.80;0.60;;;10.80;99.90;;;;;;5068990;28;20194;-74
2024/01/26 08:35:57;;;;;;;0.80;0.57;;;10.80;99.90;;;;;;5068945;28;20182;-74
2024/01/26 08:38:23;;;;;;;2.60;1.20;;;10.80;99.90;;;;;;5068698;28;20228;-74
2024/01/26 08:40:49;;;;;;;0.90;0.80;;;10.80;99.90;;;;;;5068610;28;20219;-74
2024/01/26 08:43:15;;;;;;;0.70;0.50;;;10.90;99.90;;;;;;5068531;28;20488;-74
2024/01/26 08:45:41;;;;;;;2.17;0.70;;;10.90;99.90;;;;;;5050073;28;20208;-76
2024/01/26 08:48:07;;;;;;;0.80;0.60;;;10.90;99.90;;;;;;5067953;28;20435;-74
2024/01/26 08:50:32;;;;;;;1.23;0.80;;;10.90;99.90;;;;;;5067852;28;20668;-74
2024/01/26 08:52:58;;;;;;;1.00;0.70;;;11.00;99.90;;;;;;5067784;28;20191;-74
2024/01/26 08:55:23;;;;;;;1.33;0.77;;;11.00;99.90;;;;;;5067711;28;20182;-74
2024/01/26 08:57:50;;;;;;;1.20;0.70;;;11.10;99.90;;;;;;5049437;28;20715;-74
2024/01/26 09:00:19;;;;;;;0.90;0.60;;;11.10;99.90;;;;;;5049324;28;20242;-73
2024/01/26 09:02:45;;;;;;;0.93;0.70;;;11.10;99.90;;;;;;5066889;28;21092;-73
2024/01/26 09:05:11;;;;;;;1.67;0.70;;;11.10;99.90;;;;;;5067430;28;20412;-74
2024/01/26 09:07:37;;;;;;;1.70;0.80;;;11.10;99.90;;;;;;5067284;28;21043;-75
2024/01/26 09:10:03;;;;;;;2.13;0.73;;;11.20;99.90;;;;;;5067459;28;20541;-73
2024/01/26 09:12:29;;;;;;;0.87;0.70;;;11.30;99.90;;;;;;5049163;28;20439;-74
2024/01/26 09:14:55;;;;;;;0.93;0.53;;;11.30;99.90;;;;;;5067200;28;20407;-74
2024/01/26 09:17:20;;;;;;;1.07;0.97;;;11.50;99.90;;;;;;5067362;28;20320;-73
2024/01/26 09:19:46;;;;;;;1.00;0.80;;;11.40;99.90;;;;;;5066978;28;20211;-75
2024/01/26 09:22:12;;;;;;;2.70;1.03;;;11.30;99.90;;;;;;5067339;28;20191;-73
2024/01/26 09:24:37;;;;;;;2.50;0.80;;;11.40;99.90;;;;;;5067229;28;20274;-73
2024/01/26 09:27:03;;;;;;;1.93;0.70;;;11.30;99.90;;;;;;5067164;28;20184;-73
2024/01/26 09:29:29;;;;;;;2.40;0.70;;;11.30;99.90;;;;;;5048932;28;20213;-73
2024/01/26 09:31:56;;;;;;;3.17;1.10;;;11.20;99.90;;;;;;5066950;28;20187;-73
2024/01/26 09:34:22;;;;;;;1.70;0.83;;;11.20;99.90;;;;;;5066956;28;20180;-73
2024/01/26 09:36:48;;;;;;;1.77;0.80;;;11.20;99.90;;;;;;5066907;28;20467;-72
2024/01/26 09:39:14;;;;;;;2.57;1.00;;;11.20;99.90;;;;;;5066793;28;20488;-72
2024/01/26 09:41:39;;;;;;;1.60;0.87;;;11.30;99.90;;;;;;5048616;28;20433;-74
2024/01/26 09:44:05;;;;;;;3.57;0.90;;;11.40;99.90;;;;;;5066870;28;20235;-73
2024/01/26 09:46:31;;;;;;;0.80;0.70;;;11.40;99.90;;;;;;5048595;28;20755;-73
2024/01/26 09:48:58;;;;;;;3.20;1.33;;;11.50;99.90;;;;;;5048646;28;20205;-73
2024/01/26 09:51:27;;;;;;;1.40;0.97;;;11.50;99.90;;;;;;5066698;28;21074;-73
2024/01/26 09:53:59;;;;;;;0.80;0.70;;;11.50;99.90;;;;;;5066591;28;20462;-73
2024/01/26 09:56:26;;;;;;;1.00;0.60;;;11.50;99.90;;;;;;5067208;28;20413;-72
2024/01/26 09:58:52;;;;;;;1.67;0.90;;;11.40;99.90;;;;;;5066879;28;20958;-72
2024/01/26 10:01:21;;;;;;;1.27;1.10;;;11.50;99.90;;;;;;5066535;28;20462;-74
2024/01/26 10:03:47;;;;;;;1.30;0.80;;;11.40;99.90;;;;;;5066576;28;20797;-73
2024/01/26 10:06:13;;;;;;;4.10;0.90;;;11.50;99.90;;;;;;5048796;28;20777;-73
2024/01/26 10:08:40;;;;;;;1.50;1.40;;;11.40;99.90;;;;;;5066664;28;20460;-73
2024/01/26 10:11:06;;;;;;;0.87;0.70;;;11.40;99.90;;;;;;5066987;28;20427;-73
2024/01/26 10:13:32;;;;;;;3.33;1.00;;;11.40;99.90;;;;;;5049168;28;20415;-73
2024/01/26 10:16:09;;;;;;;1.30;0.70;;;11.40;99.90;;;;;;5070565;28;20181;-73
2024/01/26 10:18:43;;;;;;;1.60;0.90;;;11.40;99.90;;;;;;5052969;28;20443;-73
2024/01/26 10:21:13;;;;;;;1.83;1.10;;;11.40;99.90;;;;;;5071308;28;20462;-72
2024/01/26 10:23:39;;;;;;;3.53;1.07;;;11.40;99.90;;;;;;5071393;28;20451;-72
2024/01/26 10:26:05;;;;;;;1.87;1.00;;;11.40;99.90;;;;;;5071393;28;20446;-72
2024/01/26 10:28:31;;;;;;;0.90;0.80;;;11.40;99.90;;;;;;5070722;28;20538;-72
2024/01/26 10:30:56;;;;;;;1.30;0.90;;;11.40;99.90;;;;;;5053449;28;20188;-73
2024/01/26 10:33:23;;;;;;;1.57;1.07;;;11.30;99.90;;;;;;5053363;28;20436;-73
2024/01/26 10:35:56;;;;;;;1.37;0.80;;;11.30;99.90;;;;;;5071241;28;20219;-74
2024/01/26 10:38:21;;;;;;;1.60;1.00;;;11.30;99.90;;;;;;5070988;28;20474;-73
2024/01/26 10:40:48;;;;;;;4.87;1.23;;;11.50;99.90;;;;;;5053289;28;20851;-73
2024/01/26 10:43:15;;;;;;;1.30;1.20;;;11.40;99.90;;;;;;5071305;28;20175;-74
2024/01/26 10:45:41;;;;;;;1.30;0.83;;;11.40;99.90;;;;;;5071011;28;20506;-73
2024/01/26 10:48:09;;;;;;;4.10;1.10;;;11.30;99.90;;;;;;5071203;28;20462;-73
2024/01/26 10:50:40;;;;;;;1.50;1.10;;;11.30;99.90;;;;;;5052906;28;20614;-73
2024/01/26 10:53:07;;;;;;;1.90;1.03;;;11.30;99.90;;;;;;5070971;28;20935;-74
2024/01/26 10:55:35;;;;;;;0.90;0.80;;;11.30;99.90;;;;;;5070928;28;20428;-72
2024/01/26 10:58:02;;;;;;;1.50;1.40;;;11.30;99.90;;;;;;5053248;28;20446;-74
2024/01/26 11:00:28;;;;;;;2.40;1.00;;;11.40;99.90;;;;;;5070992;28;20894;-74
2024/01/26 11:02:54;;;;;;;1.40;1.20;;;11.40;99.90;;;;;;5052319;28;20420;-73
2024/01/26 11:05:20;;;;;;;1.30;1.00;;;11.50;99.90;;;;;;5070193;28;20425;-73
2024/01/26 11:07:47;;;;;;;1.10;0.80;;;11.60;99.90;;;;;;5069825;28;20438;-73
2024/01/26 11:10:19;;;;;;;1.67;1.20;;;11.50;99.90;;;;;;5070497;28;20572;-73
2024/01/26 11:12:45;;;;;;;1.20;1.03;;;11.60;99.90;;;;;;5070743;28;20416;-72
2024/01/26 11:15:15;;;;;;;1.33;1.07;;;11.70;99.90;;;;;;5069640;28;20500;-74
2024/01/26 11:17:49;;;;;;;7.67;3.33;;;11.60;99.90;;;;;;5069390;28;20189;-72
2024/01/26 11:20:21;;;;;;;2.40;2.03;;;11.60;99.90;;;;;;5051302;28;20521;-73
2024/01/26 11:23:00;;;;;;;2.40;1.10;;;11.60;99.90;;;;;;5069611;28;21134;-74
2024/01/26 11:25:31;;;;;;;1.30;1.20;;;11.50;99.90;;;;;;5069721;28;20921;-74
2024/01/26 11:28:01;;;;;;;1.30;1.10;;;11.50;99.90;;;;;;5051003;28;20440;-74
2024/01/26 11:30:28;;;;;;;4.00;1.40;;;11.50;99.90;;;;;;5069321;28;20415;-73
2024/01/26 11:32:54;;;;;;;1.43;1.03;;;11.50;99.90;;;;;;5069311;28;20464;-74
2024/01/26 11:35:21;;;;;;;1.10;0.90;;;11.50;99.90;;;;;;5069117;28;21255;-73
2024/01/26 11:37:48;;;;;;;1.53;1.30;;;11.40;99.90;;;;;;5068865;28;20490;-73
2024/01/26 11:40:14;;;;;;;2.07;1.10;;;11.40;99.90;;;;;;5069144;28;20480;-73
2024/01/26 11:42:43;;;;;;;2.27;1.10;;;11.40;99.90;;;;;;5069184;28;21100;-73
2024/01/26 11:45:12;;;;;;;1.27;1.00;;;11.40;99.90;;;;;;5068922;28;20443;-73
2024/01/26 11:47:42;;;;;;;1.67;1.00;;;11.50;99.90;;;;;;5050791;28;20517;-73
2024/01/26 11:50:11;;;;;;;1.73;0.70;;;11.50;99.90;;;;;;5068580;28;20446;-73
2024/01/26 11:52:37;;;;;;;1.30;0.83;;;11.50;99.90;;;;;;5068094;28;20497;-73
2024/01/26 11:55:05;;;;;;;2.10;1.57;;;11.50;99.90;;;;;;5049667;28;20466;-74
2024/01/26 11:57:32;;;;;;;2.20;1.10;;;11.50;99.90;;;;;;5068005;28;20934;-74
2024/01/26 12:00:04;;;;;;;1.20;0.93;;;11.60;99.90;;;;;;5049765;28;20461;-74
2024/01/26 12:02:30;;;;;;;1.27;0.97;;;11.50;99.90;;;;;;5068598;28;20911;-73
2024/01/26 12:04:55;;;;;;;1.50;1.17;;;11.50;99.90;;;;;;5050335;28;20430;-74
2024/01/26 12:07:22;;;;;;;1.10;1.00;;;11.50;99.90;;;;;;5067967;28;20602;-73
2024/01/26 12:09:48;;;;;;;1.10;1.00;;;11.50;99.90;;;;;;5068129;28;20529;-73
2024/01/26 12:12:14;;;;;;;2.07;1.13;;;11.50;99.90;;;;;;5067983;28;20430;-73
2024/01/26 12:14:40;;;;;;;1.20;0.83;;;11.50;99.90;;;;;;5068201;28;20189;-73
2024/01/26 12:17:06;;;;;;;1.67;0.80;;;11.50;99.90;;;;;;5049893;28;20427;-73
2024/01/26 12:19:32;;;;;;;1.03;0.93;;;11.40;99.90;;;;;;5067900;28;20686;-73
2024/01/26 12:21:58;;;;;;;2.47;1.20;;;11.50;99.90;;;;;;5067832;28;20416;-73
2024/01/26 12:24:24;;;;;;;1.37;1.20;;;11.40;99.90;;;;;;5068188;28;20200;-73
2024/01/26 12:26:50;;;;;;;1.40;1.30;;;11.50;99.90;;;;;;5068011;28;20659;-73
2024/01/26 12:29:16;;;;;;;1.37;1.10;;;11.40;99.90;;;;;;5067295;28;20536;-74
2024/01/26 12:31:41;;;;;;;3.60;0.87;;;11.40;99.90;;;;;;5067351;28;20497;-73
2024/01/26 12:34:14;;;;;;;1.23;1.13;;;11.50;99.90;;;;;;5068009;28;21017;-73
2024/01/26 12:36:40;;;;;;;1.83;1.30;;;11.50;99.90;;;;;;5067820;28;20175;-73
2024/01/26 12:39:06;;;;;;;1.10;0.90;;;11.50;99.90;;;;;;5067457;28;20971;-72
2024/01/26 12:41:35;;;;;;;1.83;1.10;;;11.50;99.90;;;;;;5067256;28;20423;-73
2024/01/26 12:44:01;;;;;;;2.43;1.20;;;11.50;99.90;;;;;;5067182;28;20411;-73
2024/01/26 12:46:27;;;;;;;1.10;1.00;;;11.50;99.90;;;;;;5049592;28;20460;-73
2024/01/26 12:48:53;;;;;;;1.37;0.93;;;11.50;99.90;;;;;;5067397;28;20515;-73